Time;durP1;ratioP1;P1;durP2;ratioP2;P2;SDS_P1;SDS_P2;PMS_P1;PMS_P2;Temp;Humidity;BMP_temperature;BMP_pressure;BME280_temperature;BME280_humidity;BME280_pressure;Samples;Min_cycle;Max_cycle;Signal;HPM_P1;HPM_P2
2022/04/04 00:00:08;;;;;;;8.07;3.72;;;3.30;99.90;;;;;;4952958;28;20063;-59
2022/04/04 00:02:35;;;;;;;6.93;3.65;;;3.30;99.90;;;;;;4953456;28;20051;-59
2022/04/04 00:05:01;;;;;;;6.28;3.75;;;3.30;99.90;;;;;;4926611;28;20055;-57
2022/04/04 00:07:27;;;;;;;5.80;4.05;;;3.30;99.90;;;;;;4951928;28;20059;-58
2022/04/04 00:09:54;;;;;;;8.13;3.78;;;3.40;99.90;;;;;;4962954;28;20047;-58
2022/04/04 00:12:20;;;;;;;7.57;3.75;;;3.30;99.90;;;;;;4969302;28;20516;-59
2022/04/04 00:14:50;;;;;;;7.78;3.50;;;3.30;99.90;;;;;;4951372;28;20039;-59
2022/04/04 00:17:16;;;;;;;5.95;3.90;;;3.30;99.90;;;;;;4982304;28;20047;-57
2022/04/04 00:19:42;;;;;;;7.25;4.07;;;3.30;99.90;;;;;;4951549;28;20070;-59
2022/04/04 00:22:08;;;;;;;10.77;4.03;;;3.30;99.90;;;;;;4949138;28;20050;-59
2022/04/04 00:24:35;;;;;;;5.70;3.67;;;3.20;99.90;;;;;;4951767;28;20520;-58
2022/04/04 00:27:01;;;;;;;6.80;3.90;;;3.20;99.90;;;;;;4959695;28;20101;-57
2022/04/04 00:29:27;;;;;;;4.70;3.50;;;3.30;99.90;;;;;;4933839;28;20051;-57
2022/04/04 00:31:53;;;;;;;4.45;3.33;;;3.20;99.90;;;;;;4952489;28;20196;-58
2022/04/04 00:34:20;;;;;;;6.78;3.60;;;3.20;99.90;;;;;;4942471;28;20046;-57
2022/04/04 00:36:46;;;;;;;7.65;4.03;;;3.20;99.90;;;;;;4954231;28;20536;-58
2022/04/04 00:39:15;;;;;;;6.32;4.20;;;3.20;99.90;;;;;;4931380;28;20054;-58
2022/04/04 00:41:43;;;;;;;5.75;3.80;;;3.10;99.90;;;;;;4949917;28;20129;-57
2022/04/04 00:44:09;;;;;;;6.68;3.55;;;3.20;99.90;;;;;;4940048;28;20109;-58
2022/04/04 00:46:40;;;;;;;7.05;4.15;;;3.20;99.90;;;;;;4953037;28;20054;-59
2022/04/04 00:49:05;;;;;;;8.32;4.10;;;3.20;99.90;;;;;;4949421;28;20532;-57
2022/04/04 00:51:31;;;;;;;7.38;3.80;;;3.20;99.90;;;;;;4968062;28;20065;-58
2022/04/04 00:53:57;;;;;;;8.18;4.07;;;3.20;99.90;;;;;;4951400;28;20047;-58
2022/04/04 00:56:27;;;;;;;9.63;3.97;;;3.20;99.90;;;;;;4941567;28;20054;-58
2022/04/04 00:58:53;;;;;;;6.47;4.20;;;3.20;99.90;;;;;;4951090;28;20091;-58
2022/04/04 01:01:21;;;;;;;7.20;4.20;;;3.20;99.90;;;;;;4925497;28;20088;-58
2022/04/04 01:03:47;;;;;;;10.38;4.82;;;3.20;99.90;;;;;;4952012;28;20144;-58
2022/04/04 01:06:13;;;;;;;6.20;4.03;;;3.20;99.90;;;;;;4933546;28;20141;-58
2022/04/04 01:08:40;;;;;;;6.22;4.40;;;3.20;99.90;;;;;;4952850;28;20050;-58
2022/04/04 01:11:06;;;;;;;9.13;4.90;;;3.20;99.90;;;;;;4952760;28;20443;-58
2022/04/04 01:13:32;;;;;;;10.02;5.55;;;3.30;99.90;;;;;;4952982;28;20046;-58
2022/04/04 01:15:58;;;;;;;8.55;5.25;;;3.30;99.90;;;;;;4937319;28;20043;-58
2022/04/04 01:18:23;;;;;;;9.27;5.07;;;3.30;99.90;;;;;;4965631;28;20630;-58
2022/04/04 01:20:50;;;;;;;8.25;5.60;;;3.30;99.90;;;;;;4954589;28;20046;-57
2022/04/04 01:23:23;;;;;;;8.18;5.78;;;3.30;99.90;;;;;;4952297;28;20047;-57
2022/04/04 01:25:49;;;;;;;12.38;6.15;;;3.40;99.90;;;;;;4925561;28;20145;-58
2022/04/04 01:28:15;;;;;;;8.93;6.38;;;3.40;99.90;;;;;;4921533;28;20541;-59
2022/04/04 01:30:41;;;;;;;10.70;6.82;;;3.40;99.90;;;;;;4953252;28;20101;-58
2022/04/04 01:33:07;;;;;;;11.68;6.68;;;3.50;99.90;;;;;;4950462;28;20492;-58
2022/04/04 01:35:33;;;;;;;10.15;7.25;;;3.60;99.90;;;;;;4954323;28;20126;-59
2022/04/04 01:38:00;;;;;;;14.27;7.88;;;3.50;99.90;;;;;;4952611;28;20049;-58
2022/04/04 01:40:25;;;;;;;12.23;7.25;;;3.50;99.90;;;;;;4950975;28;20051;-60
2022/04/04 01:42:54;;;;;;;9.95;7.75;;;3.60;99.90;;;;;;4950444;28;20058;-59
2022/04/04 01:46:23;;;;;;;17.40;9.10;;;3.60;99.90;;;;;;4950468;28;20050;-59
2022/04/04 01:48:06;;;;;;;18.33;9.45;;;3.70;99.90;;;;;;4936092;28;20039;-58
2022/04/04 01:50:32;;;;;;;15.20;9.55;;;3.60;99.90;;;;;;4952547;28;20046;-59
2022/04/04 01:53:25;;;;;;;16.02;9.27;;;3.70;99.90;;;;;;4932088;28;20436;-58
2022/04/04 01:55:44;;;;;;;19.23;11.30;;;3.80;99.90;;;;;;4936599;28;20104;-58
2022/04/04 01:58:10;;;;;;;17.63;11.45;;;3.80;99.90;;;;;;4970069;28;20061;-57
2022/04/04 02:00:38;;;;;;;16.58;10.85;;;3.70;99.90;;;;;;4935735;28;20404;-57
2022/04/04 02:03:04;;;;;;;17.77;11.93;;;3.80;99.90;;;;;;4945511;28;20497;-58
2022/04/04 02:05:30;;;;;;;18.67;12.60;;;3.80;99.90;;;;;;4951514;28;20046;-58
2022/04/04 02:07:56;;;;;;;21.45;13.35;;;3.90;99.90;;;;;;4940162;28;20053;-59
2022/04/04 02:10:22;;;;;;;25.05;13.70;;;3.90;99.90;;;;;;4952630;28;20112;-58
2022/04/04 02:12:47;;;;;;;19.10;13.57;;;4.00;99.90;;;;;;4951521;28;20162;-59
2022/04/04 02:15:13;;;;;;;20.08;14.45;;;4.00;99.90;;;;;;4949943;28;20039;-57
2022/04/04 02:17:40;;;;;;;22.55;13.70;;;4.00;99.90;;;;;;4965718;28;20051;-58
2022/04/04 02:20:08;;;;;;;23.98;13.93;;;4.00;99.90;;;;;;4931704;28;20826;-57
2022/04/04 02:22:34;;;;;;;20.60;14.85;;;4.00;99.90;;;;;;4953130;28;20377;-58
2022/04/04 02:25:01;;;;;;;22.00;14.82;;;4.00;99.90;;;;;;4934183;28;20479;-59
2022/04/04 02:27:27;;;;;;;20.83;14.05;;;4.00;99.90;;;;;;4950917;28;20054;-59
2022/04/04 02:29:52;;;;;;;19.48;13.73;;;4.10;99.90;;;;;;4933407;28;20058;-58
2022/04/04 02:32:19;;;;;;;22.85;13.98;;;4.10;99.90;;;;;;4949968;28;20066;-58
2022/04/04 02:34:46;;;;;;;21.35;13.77;;;4.10;99.90;;;;;;4967386;28;20163;-58
2022/04/04 02:37:13;;;;;;;21.17;14.52;;;4.10;99.90;;;;;;4920352;28;20162;-58
2022/04/04 02:39:39;;;;;;;21.77;13.50;;;4.10;99.90;;;;;;4953602;28;20515;-59
2022/04/04 02:42:05;;;;;;;20.70;14.55;;;4.10;99.90;;;;;;4934289;28;20193;-57
2022/04/04 02:44:31;;;;;;;21.70;13.98;;;4.10;99.90;;;;;;4964310;28;20054;-58
2022/04/04 02:46:57;;;;;;;20.48;14.23;;;4.10;99.90;;;;;;4966490;28;20126;-57
2022/04/04 02:49:23;;;;;;;18.10;13.50;;;4.10;99.90;;;;;;4964288;28;20055;-57
2022/04/04 02:51:49;;;;;;;18.90;13.95;;;4.10;99.90;;;;;;4964018;28;20061;-57
2022/04/04 02:54:15;;;;;;;19.17;15.07;;;4.10;99.90;;;;;;4951768;28;20039;-59
2022/04/04 02:56:42;;;;;;;19.25;14.57;;;4.10;99.90;;;;;;4931862;28;20034;-58
2022/04/04 02:59:08;;;;;;;21.92;14.93;;;4.20;99.90;;;;;;4946095;28;20621;-58
2022/04/04 03:01:35;;;;;;;20.52;14.88;;;4.20;99.90;;;;;;4948397;28;20109;-59
2022/04/04 03:04:02;;;;;;;21.55;14.85;;;4.20;99.90;;;;;;4965157;28;20571;-58
2022/04/04 03:06:28;;;;;;;24.15;15.35;;;4.30;99.90;;;;;;4951853;28;20047;-58
2022/04/04 03:08:55;;;;;;;24.52;15.13;;;4.20;99.90;;;;;;4947643;28;20126;-56
2022/04/04 03:11:21;;;;;;;21.85;15.90;;;4.20;99.90;;;;;;4948850;28;20114;-59
2022/04/04 03:13:47;;;;;;;24.35;15.88;;;4.20;99.90;;;;;;4950824;28;20047;-57
2022/04/04 03:16:13;;;;;;;23.02;16.05;;;4.20;99.90;;;;;;4949086;28;20057;-58
2022/04/04 03:18:40;;;;;;;22.65;15.20;;;4.30;99.90;;;;;;4950529;28;20126;-57
2022/04/04 03:21:06;;;;;;;21.58;15.15;;;4.30;99.90;;;;;;4950065;28;20063;-57
2022/04/04 03:23:34;;;;;;;29.10;15.25;;;4.30;99.90;;;;;;4952760;28;20055;-58
2022/04/04 03:26:01;;;;;;;26.60;15.38;;;4.30;99.90;;;;;;4931713;28;20591;-58
2022/04/04 03:28:26;;;;;;;23.15;14.93;;;4.30;99.90;;;;;;4948100;28;20876;-57
2022/04/04 03:30:53;;;;;;;23.15;15.32;;;4.40;99.90;;;;;;4952093;28;20050;-59
2022/04/04 03:33:19;;;;;;;22.13;15.07;;;4.40;99.90;;;;;;4965313;28;20134;-57
2022/04/04 03:35:45;;;;;;;26.30;15.65;;;4.40;99.90;;;;;;4938334;28;20064;-57
2022/04/04 03:38:13;;;;;;;24.92;15.90;;;4.40;99.90;;;;;;4949885;28;21726;-57
2022/04/04 03:40:40;;;;;;;25.85;15.98;;;4.40;99.90;;;;;;4964506;28;20043;-57
2022/04/04 03:43:06;;;;;;;26.30;16.42;;;4.50;99.90;;;;;;4948790;28;20154;-58
2022/04/04 03:45:32;;;;;;;22.17;16.10;;;4.50;99.90;;;;;;4923317;28;20037;-59
2022/04/04 03:47:59;;;;;;;25.05;16.35;;;4.50;99.90;;;;;;4951150;28;20093;-60
2022/04/04 03:50:27;;;;;;;23.67;15.20;;;4.50;99.90;;;;;;4933202;28;20047;-59
2022/04/04 03:52:55;;;;;;;25.05;16.42;;;4.50;99.90;;;;;;4953055;28;20106;-58
2022/04/04 03:55:28;;;;;;;25.80;17.08;;;4.50;99.90;;;;;;4940019;28;20046;-59
2022/04/04 03:57:54;;;;;;;;;;;4.50;99.90;;;;;;4934627;28;20077;-58
2022/04/04 04:00:22;;;;;;;25.55;16.45;;;4.50;99.90;;;;;;4964685;28;19929;-58
2022/04/04 04:02:48;;;;;;;27.27;17.27;;;4.50;99.90;;;;;;4925622;28;20059;-58
2022/04/04 04:05:14;;;;;;;33.20;17.85;;;4.50;99.90;;;;;;4952248;28;20042;-57
2022/04/04 04:07:41;;;;;;;26.40;17.67;;;4.50;99.90;;;;;;4931192;28;20054;-58
2022/04/04 04:10:07;;;;;;;26.67;16.95;;;4.60;99.90;;;;;;4933104;28;20425;-59
2022/04/04 04:12:33;;;;;;;27.17;17.30;;;4.60;99.90;;;;;;4965573;28;20047;-59
2022/04/04 04:14:59;;;;;;;28.13;18.17;;;4.60;99.90;;;;;;4952909;28;20085;-59
2022/04/04 04:17:25;;;;;;;31.85;18.38;;;4.60;99.90;;;;;;4954564;28;20504;-59
2022/04/04 04:22:37;;;;;;;26.00;17.20;;;4.60;99.90;;;;;;4954070;28;20086;-58
2022/04/04 04:25:05;;;;;;;30.85;17.92;;;4.70;99.90;;;;;;4952211;28;20079;-58
2022/04/04 04:27:31;;;;;;;27.52;18.33;;;4.70;99.90;;;;;;4954301;28;20054;-58
2022/04/04 04:29:56;;;;;;;30.48;17.17;;;4.70;99.90;;;;;;4955367;28;20057;-59
2022/04/04 04:32:24;;;;;;;31.80;17.35;;;4.70;99.90;;;;;;4942917;28;20054;-59
2022/04/04 04:34:50;;;;;;;28.58;17.60;;;4.80;99.90;;;;;;4949034;28;20039;-58
2022/04/04 04:37:21;;;;;;;31.50;16.90;;;4.80;99.90;;;;;;4951036;28;20081;-59
2022/04/04 04:39:47;;;;;;;23.75;16.58;;;4.80;99.90;;;;;;4944785;28;20078;-59
2022/04/04 04:42:13;;;;;;;28.77;17.58;;;4.90;99.90;;;;;;4936417;28;20094;-59
2022/04/04 04:44:39;;;;;;;26.25;17.55;;;4.90;99.90;;;;;;4968866;28;20078;-58
2022/04/04 04:47:07;;;;;;;26.48;17.02;;;4.90;99.90;;;;;;4951770;28;20848;-59
2022/04/04 04:49:34;;;;;;;29.42;17.35;;;5.00;99.90;;;;;;4952598;28;20047;-58
2022/04/04 04:52:00;;;;;;;29.38;16.20;;;5.00;99.90;;;;;;4936043;28;20470;-58
2022/04/04 04:54:26;;;;;;;30.88;16.95;;;5.00;99.90;;;;;;4925487;28;20042;-57
2022/04/04 04:56:52;;;;;;;32.22;16.92;;;5.00;99.90;;;;;;4935742;28;20042;-58
2022/04/04 04:59:19;;;;;;;26.98;16.38;;;4.90;99.90;;;;;;4949429;28;20753;-58
2022/04/04 05:01:45;;;;;;;26.02;15.10;;;5.00;99.90;;;;;;4933485;28;20074;-58
2022/04/04 05:04:11;;;;;;;27.20;15.15;;;5.00;99.90;;;;;;4967422;28;20050;-58
2022/04/04 05:06:36;;;;;;;23.73;14.77;;;5.00;99.90;;;;;;4954600;28;20140;-56
2022/04/04 05:09:02;;;;;;;25.52;14.00;;;5.00;99.90;;;;;;4952214;28;20042;-59
2022/04/04 05:11:28;;;;;;;21.15;13.45;;;5.00;99.90;;;;;;4953351;28;20505;-59
2022/04/04 05:13:54;;;;;;;21.85;11.45;;;5.00;99.90;;;;;;4937122;28;20049;-56
2022/04/04 05:16:20;;;;;;;22.08;11.30;;;5.00;99.90;;;;;;4950266;28;20047;-58
2022/04/04 05:18:46;;;;;;;19.45;11.85;;;5.00;99.90;;;;;;4954373;28;20133;-58
2022/04/04 05:21:12;;;;;;;21.63;11.65;;;5.00;99.90;;;;;;4966812;28;20756;-58
2022/04/04 05:23:39;;;;;;;20.42;11.60;;;5.00;99.90;;;;;;4949360;28;20047;-58
2022/04/04 05:26:05;;;;;;;24.00;11.98;;;5.00;99.90;;;;;;4951577;28;20134;-58
2022/04/04 05:28:32;;;;;;;20.88;11.98;;;5.00;99.90;;;;;;4952014;28;20474;-58
2022/04/04 05:30:59;;;;;;;19.48;11.10;;;5.10;99.90;;;;;;4936574;28;20051;-57
2022/04/04 05:33:26;;;;;;;20.33;12.05;;;5.10;99.90;;;;;;4920304;28;20494;-58
2022/04/04 05:35:52;;;;;;;19.48;10.98;;;5.00;99.90;;;;;;4955207;28;20054;-58
2022/04/04 05:38:18;;;;;;;18.13;10.65;;;5.10;99.90;;;;;;4950473;28;20059;-57
2022/04/04 05:40:44;;;;;;;20.67;12.60;;;5.10;99.90;;;;;;4952859;28;20042;-57
2022/04/04 05:43:10;;;;;;;22.30;12.32;;;5.10;99.90;;;;;;4953487;28;20465;-57
2022/04/04 05:45:36;;;;;;;22.45;11.63;;;5.00;99.90;;;;;;4937571;28;20046;-57
2022/04/04 05:48:03;;;;;;;15.90;10.52;;;5.00;99.90;;;;;;4952787;28;20062;-57
2022/04/04 05:50:29;;;;;;;16.08;10.23;;;5.00;99.90;;;;;;4954321;28;20055;-57
2022/04/04 05:52:55;;;;;;;18.38;10.43;;;5.00;99.90;;;;;;4954167;28;20409;-57
2022/04/04 05:55:21;;;;;;;14.82;8.90;;;5.00;99.90;;;;;;4950610;28;20230;-58
2022/04/04 05:57:47;;;;;;;13.82;7.78;;;5.00;99.90;;;;;;4963370;28;21249;-57
2022/04/04 06:00:14;;;;;;;10.90;7.32;;;5.00;99.90;;;;;;4950248;28;20047;-57
2022/04/04 06:02:45;;;;;;;11.82;7.53;;;5.00;99.90;;;;;;4942074;28;23223;-56
2022/04/04 06:05:11;;;;;;;10.75;6.38;;;4.90;99.90;;;;;;4948239;28;20047;-57
2022/04/04 06:07:39;;;;;;;8.77;5.30;;;4.90;99.90;;;;;;4922113;28;20057;-58
2022/04/04 06:10:08;;;;;;;10.05;5.03;;;4.90;99.90;;;;;;4913705;28;20117;-56
2022/04/04 06:12:40;;;;;;;9.65;4.95;;;4.80;99.90;;;;;;4942120;28;20436;-57
2022/04/04 06:15:07;;;;;;;8.90;4.28;;;4.80;99.90;;;;;;4947511;28;20114;-57
2022/04/04 06:17:33;;;;;;;7.18;3.72;;;4.80;99.90;;;;;;4948708;28;20500;-57
2022/04/04 06:19:59;;;;;;;8.70;4.43;;;4.70;99.90;;;;;;4967912;28;20477;-56
2022/04/04 06:22:25;;;;;;;8.98;4.32;;;4.70;99.90;;;;;;4950813;28;20106;-57
2022/04/04 06:24:51;;;;;;;6.97;4.20;;;4.70;99.90;;;;;;4932258;28;20067;-56
2022/04/04 06:27:17;;;;;;;8.93;4.60;;;4.60;99.90;;;;;;4951586;28;20047;-56
2022/04/04 06:29:43;;;;;;;8.35;4.60;;;4.60;99.90;;;;;;4936910;28;20481;-57
2022/04/04 06:32:10;;;;;;;7.50;4.13;;;4.60;99.90;;;;;;4950674;28;20097;-56
2022/04/04 06:34:37;;;;;;;9.27;4.63;;;4.60;99.90;;;;;;4947667;28;20050;-57
2022/04/04 06:37:04;;;;;;;7.55;4.30;;;4.60;99.90;;;;;;4965889;28;20482;-57
2022/04/04 06:39:31;;;;;;;11.18;4.95;;;4.70;99.90;;;;;;4950624;28;20050;-56
2022/04/04 06:41:57;;;;;;;8.23;4.60;;;4.70;99.90;;;;;;4948261;28;20047;-57
2022/04/04 06:44:23;;;;;;;9.85;4.03;;;4.70;99.90;;;;;;4938275;28;20404;-57
2022/04/04 06:46:50;;;;;;;7.75;4.45;;;4.60;99.90;;;;;;4947916;28;20059;-57
2022/04/04 06:49:16;;;;;;;8.13;4.75;;;4.70;99.90;;;;;;4927389;28;20105;-57
2022/04/04 06:51:42;;;;;;;11.25;4.93;;;4.70;99.90;;;;;;4945928;28;20044;-56
2022/04/04 06:54:09;;;;;;;9.88;4.30;;;4.70;99.90;;;;;;4961229;28;20555;-57
2022/04/04 06:56:35;;;;;;;9.13;5.13;;;4.70;99.90;;;;;;4951577;28;20126;-57
2022/04/04 06:59:04;;;;;;;9.57;5.38;;;4.70;99.90;;;;;;4962600;28;20047;-58
2022/04/04 07:01:31;;;;;;;8.48;5.22;;;4.70;99.90;;;;;;4957956;28;20122;-57
2022/04/04 07:03:58;;;;;;;8.52;5.13;;;4.70;99.90;;;;;;4951521;28;20078;-56
2022/04/04 07:06:25;;;;;;;13.25;6.43;;;4.80;99.90;;;;;;4948784;28;20437;-58
2022/04/04 07:08:51;;;;;;;14.57;6.20;;;4.80;99.90;;;;;;4947418;28;20420;-57
2022/04/04 07:11:17;;;;;;;11.48;6.18;;;4.80;99.90;;;;;;4947328;28;20481;-56
2022/04/04 07:13:49;;;;;;;12.10;6.68;;;4.80;99.90;;;;;;4946373;28;20089;-57
2022/04/04 07:16:18;;;;;;;10.02;6.75;;;4.90;99.90;;;;;;4936867;28;20109;-57
2022/04/04 07:18:44;;;;;;;13.50;8.00;;;4.90;99.90;;;;;;4946850;28;20085;-57
2022/04/04 07:21:10;;;;;;;12.50;7.70;;;4.90;99.90;;;;;;4950727;28;20074;-55
2022/04/04 07:23:36;;;;;;;16.63;7.88;;;4.90;99.90;;;;;;4948756;28;20137;-57
2022/04/04 07:26:02;;;;;;;13.35;8.48;;;5.00;99.90;;;;;;4947791;28;20065;-56
2022/04/04 07:28:28;;;;;;;13.15;8.98;;;5.00;99.90;;;;;;4948105;28;20055;-58
2022/04/04 07:30:55;;;;;;;16.35;8.98;;;5.10;99.90;;;;;;4932132;28;20102;-57
2022/04/04 07:33:21;;;;;;;16.60;9.00;;;5.00;99.90;;;;;;4945668;28;20544;-56
2022/04/04 07:35:47;;;;;;;15.50;9.35;;;5.20;99.90;;;;;;4931252;28;20130;-56
2022/04/04 07:38:13;;;;;;;14.25;9.40;;;5.10;99.90;;;;;;4947976;28;20285;-57
2022/04/04 07:40:40;;;;;;;17.00;9.80;;;5.20;99.90;;;;;;4948008;28;20054;-56
2022/04/04 07:43:06;;;;;;;14.15;9.52;;;5.20;99.90;;;;;;4930448;28;20181;-55
2022/04/04 07:45:32;;;;;;;17.25;10.13;;;5.20;99.90;;;;;;4950683;28;20051;-55
2022/04/04 07:47:59;;;;;;;15.57;9.43;;;5.20;99.90;;;;;;4950659;28;20450;-57
2022/04/04 07:50:25;;;;;;;14.73;9.23;;;5.30;99.90;;;;;;4937509;28;20391;-57
2022/04/04 07:52:51;;;;;;;17.60;9.20;;;5.30;99.90;;;;;;4951669;28;20134;-57
2022/04/04 07:55:17;;;;;;;15.98;9.27;;;5.30;99.90;;;;;;4949967;28;20042;-55
2022/04/04 07:57:43;;;;;;;15.18;9.05;;;5.40;99.90;;;;;;4932145;28;20073;-57
2022/04/04 08:00:12;;;;;;;12.63;8.23;;;5.40;99.90;;;;;;4948126;28;20059;-57
2022/04/04 08:02:38;;;;;;;13.13;8.27;;;5.40;99.90;;;;;;4951930;28;20055;-57
2022/04/04 08:05:04;;;;;;;13.35;8.90;;;5.50;99.90;;;;;;4950210;28;20413;-56
2022/04/04 08:07:30;;;;;;;13.38;8.13;;;5.50;99.90;;;;;;4953491;28;20093;-57
2022/04/04 08:09:56;;;;;;;11.82;7.28;;;5.50;99.90;;;;;;4953010;28;20481;-57
2022/04/04 08:12:26;;;;;;;12.95;7.60;;;5.50;99.90;;;;;;4950699;28;20054;-57
2022/04/04 08:14:52;;;;;;;12.57;7.32;;;5.50;99.90;;;;;;4954263;28;20485;-55
2022/04/04 08:17:18;;;;;;;11.05;6.90;;;5.60;99.90;;;;;;4952066;28;20050;-56
2022/04/04 08:19:44;;;;;;;14.57;7.43;;;5.70;99.90;;;;;;4952460;28;22537;-57
2022/04/04 08:22:10;;;;;;;13.45;7.28;;;5.70;99.90;;;;;;4949819;28;20051;-56
2022/04/04 08:24:36;;;;;;;15.57;7.78;;;5.70;99.90;;;;;;4947238;28;20081;-56
2022/04/04 08:27:02;;;;;;;10.45;7.28;;;5.70;99.90;;;;;;4951375;28;20051;-55
2022/04/04 08:29:28;;;;;;;10.80;6.05;;;5.70;99.90;;;;;;4948959;28;20481;-55
2022/04/04 08:31:53;;;;;;;11.38;6.38;;;5.70;99.90;;;;;;4952874;28;20098;-56
2022/04/04 08:34:20;;;;;;;10.43;6.00;;;5.80;99.90;;;;;;4949618;28;20051;-57
2022/04/04 08:36:46;;;;;;;8.45;5.32;;;5.80;99.90;;;;;;4949990;28;20058;-57
2022/04/04 08:39:12;;;;;;;9.13;5.63;;;5.90;99.90;;;;;;4963470;28;20058;-57
2022/04/04 08:41:38;;;;;;;8.82;5.05;;;5.90;99.90;;;;;;4948992;28;20419;-57
2022/04/04 08:44:05;;;;;;;9.43;4.82;;;5.90;99.90;;;;;;4951203;28;20500;-56
2022/04/04 08:46:33;;;;;;;7.68;4.53;;;6.00;99.90;;;;;;4950393;28;20536;-57
2022/04/04 08:49:00;;;;;;;7.03;4.65;;;6.00;99.90;;;;;;4947858;28;20051;-57
2022/04/04 08:51:26;;;;;;;9.15;4.28;;;6.00;99.90;;;;;;4948026;28;20182;-56
2022/04/04 08:53:53;;;;;;;7.97;4.20;;;6.00;99.90;;;;;;4946964;28;20112;-57
2022/04/04 08:56:23;;;;;;;7.22;4.40;;;6.00;99.90;;;;;;4949981;28;20501;-56
2022/04/04 08:58:51;;;;;;;6.95;4.10;;;6.00;99.90;;;;;;4931454;28;20414;-56
2022/04/04 09:01:19;;;;;;;7.32;4.00;;;6.10;99.90;;;;;;4949760;28;20055;-57
2022/04/04 09:03:45;;;;;;;9.45;4.47;;;6.10;99.90;;;;;;4935121;28;20112;-57
2022/04/04 09:06:10;;;;;;;5.40;3.70;;;6.10;99.90;;;;;;4953328;28;20504;-56
2022/04/04 09:08:44;;;;;;;8.65;4.50;;;6.10;99.90;;;;;;4931603;28;20110;-56
2022/04/04 09:11:11;;;;;;;5.40;3.80;;;6.20;99.90;;;;;;4949204;28;20493;-55
2022/04/04 09:13:37;;;;;;;6.07;3.80;;;6.20;99.90;;;;;;4951346;28;20113;-56
2022/04/04 09:16:05;;;;;;;5.75;3.78;;;6.20;99.90;;;;;;4946928;28;20364;-57
2022/04/04 09:18:37;;;;;;;6.38;3.92;;;6.20;99.90;;;;;;4932129;28;20137;-57
2022/04/04 09:21:04;;;;;;;6.65;4.15;;;6.30;99.90;;;;;;4950580;28;20046;-56
2022/04/04 09:23:55;;;;;;;7.40;3.85;;;6.30;99.90;;;;;;4950315;28;20043;-56
2022/04/04 09:26:42;;;;;;;7.45;3.80;;;6.30;99.90;;;;;;4947968;28;21354;-57
2022/04/04 09:29:22;;;;;;;6.63;3.22;;;6.30;99.90;;;;;;4947773;28;20491;-57
2022/04/04 09:31:59;;;;;;;8.02;3.58;;;6.30;99.90;;;;;;4950043;28;20663;-57
2022/04/04 09:34:26;;;;;;;6.32;3.65;;;6.30;99.90;;;;;;4949322;28;20043;-55
2022/04/04 09:36:52;;;;;;;6.47;3.10;;;6.40;99.90;;;;;;4948773;28;20047;-56
2022/04/04 09:39:18;;;;;;;7.97;3.20;;;6.40;99.90;;;;;;4962632;28;20538;-56
2022/04/04 09:41:44;;;;;;;8.98;3.60;;;6.40;99.90;;;;;;4963142;28;21541;-56
2022/04/04 09:44:16;;;;;;;6.22;3.00;;;6.40;99.90;;;;;;4963491;28;20046;-57
2022/04/04 09:46:44;;;;;;;4.90;3.00;;;6.40;99.90;;;;;;4949748;28;20051;-55
2022/04/04 09:49:13;;;;;;;5.45;3.05;;;6.50;99.90;;;;;;4949098;28;20047;-56
2022/04/04 09:51:50;;;;;;;3.28;2.70;;;6.60;99.90;;;;;;4950032;28;20130;-57
2022/04/04 09:54:19;;;;;;;4.93;3.08;;;6.50;99.90;;;;;;4929761;28;20051;-57
2022/04/04 09:56:46;;;;;;;6.07;3.22;;;6.60;99.90;;;;;;4948902;28;20050;-56
2022/04/04 09:59:15;;;;;;;6.07;3.20;;;6.60;99.90;;;;;;4948296;28;20105;-57
2022/04/04 10:01:42;;;;;;;6.10;3.20;;;6.60;99.90;;;;;;4949488;28;20109;-57
2022/04/04 10:04:12;;;;;;;6.72;3.47;;;6.60;99.90;;;;;;4946358;28;20043;-57
2022/04/04 10:06:43;;;;;;;7.30;3.10;;;6.70;99.90;;;;;;4948067;28;20141;-57
2022/04/04 10:09:09;;;;;;;6.78;3.45;;;6.70;99.90;;;;;;4934100;28;20089;-56
2022/04/04 10:11:38;;;;;;;7.28;3.17;;;6.70;99.90;;;;;;4946156;28;20403;-57
2022/04/04 10:14:05;;;;;;;5.68;2.80;;;6.80;99.90;;;;;;4947132;28;20042;-57
2022/04/04 10:16:32;;;;;;;4.43;2.95;;;6.70;99.90;;;;;;4947641;28;20112;-57
2022/04/04 10:18:58;;;;;;;3.75;2.40;;;6.70;99.90;;;;;;4947978;28;20526;-57
2022/04/04 10:21:26;;;;;;;4.40;2.95;;;6.80;99.90;;;;;;4947645;28;20046;-57
2022/04/04 10:24:00;;;;;;;5.72;3.00;;;6.80;99.90;;;;;;4947832;28;20503;-57
2022/04/04 10:26:32;;;;;;;3.95;2.90;;;6.80;99.90;;;;;;4962045;28;20780;-58
2022/04/04 10:29:10;;;;;;;5.37;2.70;;;6.80;99.90;;;;;;4948292;28;20054;-57
2022/04/04 10:31:51;;;;;;;6.25;2.70;;;6.80;99.90;;;;;;4948477;28;20051;-57
2022/04/04 10:34:22;;;;;;;4.95;2.80;;;6.80;99.90;;;;;;4948820;28;20636;-58
2022/04/04 10:36:55;;;;;;;5.53;2.70;;;6.90;99.90;;;;;;4934439;28;20820;-57
2022/04/04 10:39:46;;;;;;;5.18;2.55;;;6.90;99.90;;;;;;4964143;28;20050;-58
2022/04/04 10:42:32;;;;;;;5.97;2.90;;;6.90;99.90;;;;;;4951579;28;20200;-56
2022/04/04 10:45:00;;;;;;;4.43;2.67;;;6.90;99.90;;;;;;4949965;28;20503;-58
2022/04/04 10:47:29;;;;;;;4.80;2.35;;;6.90;99.90;;;;;;4948325;28;20130;-57
2022/04/04 10:50:22;;;;;;;6.47;2.90;;;6.90;99.90;;;;;;4947102;28;20130;-56
2022/04/04 10:52:49;;;;;;;4.28;1.83;;;7.00;99.90;;;;;;4931405;28;20051;-57
2022/04/04 10:55:29;;;;;;;5.70;2.20;;;7.00;99.90;;;;;;4943049;28;20047;-57
2022/04/04 10:57:59;;;;;;;3.08;1.90;;;7.00;99.90;;;;;;4949042;28;20042;-58
2022/04/04 11:00:34;;;;;;;3.38;1.70;;;7.00;99.90;;;;;;4946381;28;20066;-57
2022/04/04 11:03:04;;;;;;;4.22;2.03;;;7.10;99.90;;;;;;4946029;28;20055;-58
2022/04/04 11:08:32;;;;;;;3.47;1.90;;;7.10;99.90;;;;;;4944914;28;20054;-57
2022/04/04 11:10:58;;;;;;;3.08;1.70;;;7.10;99.90;;;;;;4920989;28;20055;-58
2022/04/04 11:13:24;;;;;;;3.05;1.70;;;7.10;99.90;;;;;;4948257;28;20104;-57
2022/04/04 11:15:55;;;;;;;2.67;1.60;;;7.20;99.90;;;;;;4934150;28;20397;-57
2022/04/04 11:18:24;;;;;;;4.82;1.60;;;7.20;99.90;;;;;;4945441;28;20181;-58
2022/04/04 11:20:59;;;;;;;3.22;1.60;;;7.20;99.90;;;;;;4952244;28;20548;-57
2022/04/04 11:23:34;;;;;;;1.70;1.40;;;7.20;99.90;;;;;;4925135;28;20504;-57
2022/04/04 11:26:04;;;;;;;3.08;1.50;;;7.20;99.90;;;;;;4935208;28;20050;-57
2022/04/04 11:28:32;;;;;;;5.65;1.50;;;7.30;99.90;;;;;;4949480;28;20184;-58
2022/04/04 11:31:10;;;;;;;1.30;1.20;;;7.30;99.90;;;;;;4963319;28;20125;-57
2022/04/04 11:33:51;;;;;;;1.58;1.20;;;7.30;99.90;;;;;;4950871;28;20065;-56
2022/04/04 11:36:40;;;;;;;1.60;1.10;;;7.40;99.90;;;;;;4948421;28;20096;-58
2022/04/04 11:39:08;;;;;;;1.38;1.13;;;7.40;99.90;;;;;;4967141;28;20055;-57
2022/04/04 11:41:39;;;;;;;1.60;1.00;;;7.40;99.90;;;;;;4951502;28;20089;-58
2022/04/04 11:44:06;;;;;;;5.07;1.30;;;7.40;99.90;;;;;;4949936;28;20062;-57
2022/04/04 11:46:32;;;;;;;1.33;1.20;;;7.40;99.90;;;;;;4937992;28;20113;-58
2022/04/04 11:48:59;;;;;;;1.65;1.20;;;7.50;99.90;;;;;;4954171;28;20050;-57
2022/04/04 11:51:26;;;;;;;1.42;1.10;;;7.50;99.90;;;;;;4932481;28;20093;-58
2022/04/04 11:54:11;;;;;;;3.25;1.20;;;7.50;99.90;;;;;;4927339;28;20074;-58
2022/04/04 11:56:37;;;;;;;1.27;1.17;;;7.50;99.90;;;;;;4956349;28;20081;-58
2022/04/04 11:59:04;;;;;;;1.30;1.00;;;7.60;99.90;;;;;;4949130;28;20049;-58
2022/04/04 12:01:34;;;;;;;1.10;1.00;;;7.60;99.90;;;;;;4937389;28;20101;-56
2022/04/04 12:04:01;;;;;;;1.67;1.20;;;7.60;99.90;;;;;;4955153;28;20073;-57
2022/04/04 12:06:29;;;;;;;1.40;1.10;;;7.60;99.90;;;;;;4954583;28;20043;-58
2022/04/04 12:08:57;;;;;;;1.50;1.20;;;7.70;99.90;;;;;;4941322;28;20413;-58
2022/04/04 12:11:28;;;;;;;1.45;1.10;;;7.70;99.90;;;;;;4954723;28;20047;-58
2022/04/04 12:13:57;;;;;;;2.53;1.33;;;7.70;99.90;;;;;;4933845;28;20043;-57
2022/04/04 12:16:30;;;;;;;2.03;1.08;;;7.80;99.90;;;;;;4964262;28;20053;-57
2022/04/04 12:19:01;;;;;;;1.33;1.00;;;7.70;99.90;;;;;;4945784;28;20048;-57
2022/04/04 12:21:27;;;;;;;2.15;1.27;;;7.80;99.90;;;;;;4948938;28;20072;-57
2022/04/04 12:26:38;;;;;;;1.30;1.10;;;7.90;99.90;;;;;;4951856;28;20939;-58
2022/04/04 12:29:13;;;;;;;1.63;1.40;;;7.90;99.90;;;;;;4948297;28;20050;-58
2022/04/04 12:31:55;;;;;;;1.88;1.50;;;7.90;99.90;;;;;;4930901;28;20050;-58
2022/04/04 12:34:23;;;;;;;1.70;1.50;;;8.00;99.90;;;;;;4950319;28;20043;-58
2022/04/04 12:36:49;;;;;;;1.65;1.40;;;8.00;99.90;;;;;;4946683;28;20079;-57
2022/04/04 12:39:19;;;;;;;4.65;1.52;;;8.00;99.90;;;;;;4937105;28;20047;-58
2022/04/04 12:41:56;;;;;;;2.67;1.60;;;8.10;99.90;;;;;;4950967;28;20157;-58
2022/04/04 12:44:26;;;;;;;2.25;1.63;;;8.10;99.90;;;;;;4963727;28;20564;-58
2022/04/04 12:47:24;;;;;;;3.00;1.80;;;8.10;99.90;;;;;;4952242;28;20130;-58
2022/04/04 12:50:14;;;;;;;1.70;1.60;;;8.20;99.90;;;;;;4902941;28;20051;-58
2022/04/04 12:52:59;;;;;;;1.92;1.73;;;8.20;99.90;;;;;;4926827;28;20059;-58
2022/04/04 12:55:26;;;;;;;2.13;1.92;;;8.30;99.90;;;;;;4951837;28;20050;-59
2022/04/04 12:57:52;;;;;;;2.15;1.80;;;8.30;99.90;;;;;;4949436;28;20047;-58
2022/04/04 13:00:35;;;;;;;4.20;2.58;;;8.30;99.90;;;;;;4965647;28;20047;-58